createdAt,value
2022-11-28T00:01:41.408Z,100.00
2022-11-28T00:04:44.183Z,100.00
2022-11-28T00:07:46.791Z,100.00
2022-11-28T00:10:49.270Z,100.00
2022-11-28T00:13:51.578Z,100.00
2022-11-28T00:16:54.190Z,100.00
2022-11-28T00:19:56.605Z,100.00
2022-11-28T00:22:59.070Z,100.00
2022-11-28T00:26:02.722Z,100.00
2022-11-28T00:29:06.073Z,100.00
2022-11-28T00:32:08.399Z,100.00
2022-11-28T00:35:10.952Z,100.00
2022-11-28T00:38:13.251Z,100.00
2022-11-28T00:41:17.086Z,100.00
2022-11-28T00:44:19.285Z,100.00
2022-11-28T00:47:22.281Z,100.00
2022-11-28T00:50:27.766Z,100.00
2022-11-28T00:53:30.562Z,100.00
2022-11-28T00:56:37.233Z,100.00
2022-11-28T00:59:39.725Z,100.00
2022-11-28T01:02:41.965Z,100.00
2022-11-28T01:05:44.710Z,100.00
2022-11-28T01:08:47.270Z,100.00
2022-11-28T01:11:51.119Z,100.00
2022-11-28T01:14:53.745Z,100.00
2022-11-28T01:17:56.241Z,100.00
2022-11-28T01:20:58.864Z,100.00
2022-11-28T01:24:01.468Z,100.00
2022-11-28T01:27:03.791Z,100.00
2022-11-28T01:30:06.669Z,100.00
2022-11-28T01:33:08.956Z,100.00
2022-11-28T01:36:12.520Z,100.00
2022-11-28T01:39:15.763Z,100.00
2022-11-28T01:42:19.492Z,100.00
2022-11-28T01:45:26.327Z,100.00
2022-11-28T01:48:34.225Z,100.00
2022-11-28T01:51:37.474Z,100.00
2022-11-28T01:54:42.003Z,100.00
2022-11-28T01:57:44.407Z,100.00
2022-11-28T02:00:48.641Z,100.00
2022-11-28T02:03:52.603Z,100.00
2022-11-28T02:06:55.488Z,100.00
2022-11-28T02:09:57.759Z,100.00
2022-11-28T02:13:10.990Z,100.00
2022-11-28T02:16:28.503Z,100.00
2022-11-28T02:20:00.312Z,100.00
2022-11-28T02:23:02.551Z,100.00
2022-11-28T02:26:23.980Z,100.00
2022-11-28T02:29:29.321Z,100.00
2022-11-28T02:32:44.072Z,100.00
2022-11-28T02:35:55.877Z,100.00
2022-11-28T02:38:58.333Z,100.00
2022-11-28T02:42:06.917Z,100.00
2022-11-28T02:45:18.344Z,100.00
2022-11-28T02:48:29.245Z,100.00
2022-11-28T02:51:40.765Z,100.00
2022-11-28T02:54:43.815Z,100.00
2022-11-28T02:57:48.927Z,100.00
2022-11-28T03:00:51.946Z,100.00
2022-11-28T03:04:06.337Z,100.00
2022-11-28T03:07:23.714Z,100.00
2022-11-28T03:10:35.853Z,100.00
2022-11-28T03:13:57.431Z,100.00
2022-11-28T03:17:18.856Z,100.00
2022-11-28T03:20:28.782Z,100.00
2022-11-28T03:23:38.939Z,100.00
2022-11-28T03:26:52.596Z,100.00
2022-11-28T03:29:57.105Z,100.00
2022-11-28T03:33:00.911Z,100.00
2022-11-28T03:36:25.264Z,100.00
2022-11-28T03:39:33.674Z,100.00
2022-11-28T03:42:38.303Z,100.00
2022-11-28T03:45:49.031Z,100.00
2022-11-28T03:48:54.605Z,100.00
2022-11-28T03:52:00.712Z,100.00
2022-11-28T03:55:05.815Z,100.00
2022-11-28T03:58:34.384Z,100.00
2022-11-28T04:01:46.445Z,100.00
2022-11-28T04:05:07.649Z,100.00
2022-11-28T04:08:10.081Z,100.00
2022-11-28T04:11:35.608Z,100.00
2022-11-28T04:14:42.134Z,100.00
2022-11-28T04:17:53.081Z,100.00
2022-11-28T04:20:59.081Z,100.00
2022-11-28T04:24:04.097Z,100.00
2022-11-28T04:27:09.999Z,100.00
2022-11-28T04:30:13.797Z,100.00
2022-11-28T04:33:19.025Z,100.00
2022-11-28T04:36:22.831Z,100.00
2022-11-28T04:39:26.441Z,100.00
2022-11-28T04:42:52.593Z,100.00
2022-11-28T04:46:07.090Z,100.00
2022-11-28T04:49:10.288Z,100.00
2022-11-28T04:52:31.218Z,100.00
2022-11-28T04:55:37.536Z,100.00
2022-11-28T04:58:45.786Z,100.00
2022-11-28T05:01:49.921Z,100.00
2022-11-28T05:04:55.635Z,100.00
2022-11-28T05:07:59.449Z,100.00
2022-11-28T05:11:02.384Z,100.00
2022-11-28T05:14:04.897Z,100.00
2022-11-28T05:17:07.540Z,100.00
2022-11-28T05:20:10.293Z,100.00
2022-11-28T05:23:12.666Z,100.00
2022-11-28T05:26:20.141Z,100.00
2022-11-28T05:29:24.865Z,100.00
2022-11-28T05:32:31.317Z,100.00
2022-11-28T05:35:33.571Z,100.00
2022-11-28T05:38:36.217Z,100.00
2022-11-28T05:41:38.750Z,100.00
2022-11-28T05:44:41.437Z,100.00
2022-11-28T05:47:43.627Z,100.00
2022-11-28T05:50:46.178Z,100.00
2022-11-28T05:53:48.464Z,100.00
2022-11-28T05:56:51.110Z,100.00
2022-11-28T05:59:53.378Z,100.00
2022-11-28T06:03:00.991Z,100.00
2022-11-28T06:06:04.052Z,100.00
2022-11-28T06:09:07.235Z,100.00
2022-11-28T06:12:10.274Z,100.00
2022-11-28T06:15:12.480Z,100.00
2022-11-28T06:18:15.080Z,100.00
2022-11-28T06:21:17.296Z,100.00
2022-11-28T06:24:19.810Z,100.00
2022-11-28T06:27:22.186Z,100.00
2022-11-28T06:30:25.095Z,100.00
2022-11-28T06:33:27.373Z,100.00
2022-11-28T06:36:30.801Z,100.00
2022-11-28T06:39:33.074Z,100.00
2022-11-28T06:42:36.368Z,100.00
2022-11-28T06:45:38.621Z,100.00
2022-11-28T06:48:41.328Z,100.00
2022-11-28T06:51:45.752Z,100.00
2022-11-28T06:54:48.277Z,100.00
2022-11-28T06:57:50.433Z,100.00
2022-11-28T07:00:53.111Z,100.00
2022-11-28T07:03:56.418Z,100.00
2022-11-28T07:06:58.970Z,100.00
2022-11-28T07:10:01.224Z,100.00
2022-11-28T07:13:05.551Z,100.00
2022-11-28T07:16:12.001Z,100.00
2022-11-28T07:19:14.670Z,100.00
2022-11-28T07:22:17.116Z,100.00
2022-11-28T07:25:19.649Z,100.00
2022-11-28T07:28:23.567Z,100.00
2022-11-28T07:31:28.638Z,100.00
2022-11-28T07:34:30.913Z,100.00
2022-11-28T07:37:33.363Z,100.00
2022-11-28T07:40:36.031Z,100.00
2022-11-28T07:43:38.802Z,100.00
2022-11-28T07:46:41.149Z,100.00
2022-11-28T07:49:44.045Z,100.00
2022-11-28T07:52:46.572Z,100.00
2022-11-28T07:55:49.554Z,100.00
2022-11-28T07:58:52.792Z,100.00
2022-11-28T08:01:55.320Z,100.00
2022-11-28T08:04:58.271Z,100.00
2022-11-28T08:08:00.938Z,100.00
2022-11-28T08:11:04.911Z,100.00
2022-11-28T08:14:07.304Z,100.00
2022-11-28T08:17:09.966Z,100.00
2022-11-28T08:20:13.375Z,100.00
2022-11-28T08:23:16.039Z,100.00
2022-11-28T08:26:19.458Z,100.00
2022-11-28T08:29:22.134Z,100.00
2022-11-28T08:32:25.704Z,100.00
2022-11-28T08:35:28.234Z,100.00
2022-11-28T08:38:30.511Z,100.00
2022-11-28T08:41:33.080Z,100.00
2022-11-28T08:44:36.080Z,100.00
2022-11-28T08:47:38.703Z,99.76
2022-11-28T08:50:48.045Z,99.09
2022-11-28T08:53:54.950Z,97.64
2022-11-28T08:57:01.380Z,95.75
2022-11-28T09:00:06.185Z,98.42
2022-11-28T09:03:13.181Z,96.53
2022-11-28T09:06:16.905Z,96.02
2022-11-28T09:09:19.890Z,99.04
2022-11-28T09:12:22.557Z,97.88
2022-11-28T09:15:24.910Z,97.68
2022-11-28T09:18:27.402Z,100.00
2022-11-28T09:21:29.718Z,100.00
2022-11-28T09:24:32.323Z,100.00
2022-11-28T09:27:34.567Z,100.00
2022-11-28T09:30:39.702Z,100.00
2022-11-28T09:33:42.751Z,100.00
2022-11-28T09:36:45.234Z,100.00
2022-11-28T09:40:11.487Z,100.00
2022-11-28T09:43:18.659Z,100.00
2022-11-28T09:46:25.988Z,98.72
2022-11-28T09:49:40.859Z,100.00
2022-11-28T09:52:49.481Z,99.69
2022-11-28T09:56:14.514Z,100.00
2022-11-28T09:59:22.881Z,100.00
2022-11-28T10:02:33.971Z,100.00
2022-11-28T10:05:41.436Z,100.00
2022-11-28T10:08:55.997Z,100.00
2022-11-28T10:12:21.662Z,100.00
2022-11-28T10:15:29.749Z,100.00
2022-11-28T10:18:39.815Z,100.00
2022-11-28T10:21:45.178Z,100.00
2022-11-28T10:24:50.233Z,100.00
2022-11-28T10:27:53.346Z,100.00
2022-11-28T10:31:06.991Z,100.00
2022-11-28T10:34:09.163Z,100.00
2022-11-28T10:37:15.963Z,100.00
2022-11-28T10:40:23.577Z,100.00
2022-11-28T10:43:34.129Z,97.20
2022-11-28T10:46:52.171Z,98.58
2022-11-28T10:50:20.112Z,98.89
2022-11-28T10:53:31.598Z,98.46
2022-11-28T10:56:34.079Z,97.84
2022-11-28T11:00:03.719Z,99.19
2022-11-28T11:03:11.707Z,99.89
2022-11-28T11:06:13.987Z,100.00
2022-11-28T11:09:16.489Z,100.00
2022-11-28T11:12:25.639Z,100.00
2022-11-28T11:15:29.884Z,100.00
2022-11-28T11:18:34.798Z,100.00
2022-11-28T11:21:37.281Z,100.00
2022-11-28T11:24:39.559Z,100.00
2022-11-28T11:27:52.461Z,100.00
2022-11-28T11:31:00.104Z,99.75
2022-11-28T11:34:04.245Z,95.68
2022-11-28T11:37:20.663Z,97.26
2022-11-28T11:40:23.215Z,96.01
2022-11-28T11:43:33.055Z,96.69
2022-11-28T11:46:36.122Z,95.89
2022-11-28T11:49:44.962Z,95.24
2022-11-28T11:53:04.319Z,96.65
2022-11-28T11:56:06.859Z,97.29
2022-11-28T11:59:15.539Z,95.62
2022-11-28T12:02:23.316Z,95.75
2022-11-28T12:06:12.260Z,97.34
2022-11-28T12:09:23.219Z,97.60
2022-11-28T12:12:29.207Z,96.20
2022-11-28T12:15:45.500Z,98.38
2022-11-28T12:18:54.067Z,97.71
2022-11-28T12:22:08.411Z,96.78
2022-11-28T12:25:16.630Z,96.93
2022-11-28T12:28:37.781Z,98.60
2022-11-28T12:31:55.429Z,99.61
2022-11-28T12:35:00.848Z,98.84
2022-11-28T12:38:10.849Z,98.81
2022-11-28T12:41:25.092Z,100.00
2022-11-28T12:44:34.809Z,99.08
2022-11-28T12:47:43.325Z,98.70
2022-11-28T12:50:47.976Z,99.86
2022-11-28T12:54:05.358Z,100.00
2022-11-28T12:57:16.951Z,100.00
2022-11-28T13:00:21.226Z,100.00
2022-11-28T13:03:26.536Z,100.00
2022-11-28T13:06:31.773Z,100.00
2022-11-28T13:09:37.236Z,100.00
2022-11-28T13:12:54.957Z,100.00
2022-11-28T13:16:11.631Z,100.00
2022-11-28T13:19:26.323Z,100.00
2022-11-28T13:22:49.533Z,100.00
2022-11-28T13:26:14.828Z,100.00
2022-11-28T13:29:23.285Z,100.00
2022-11-28T13:32:35.327Z,100.00
2022-11-28T13:35:39.194Z,100.00
2022-11-28T13:39:11.718Z,100.00
2022-11-28T13:45:54.162Z,100.00
2022-11-28T13:49:19.730Z,100.00
2022-11-28T13:52:29.376Z,100.00
2022-11-28T13:55:46.458Z,100.00
2022-11-28T13:58:56.822Z,100.00
2022-11-28T14:02:04.883Z,100.00
2022-11-28T14:05:21.497Z,100.00
2022-11-28T14:08:38.300Z,100.00
2022-11-28T14:11:50.010Z,100.00
2022-11-28T14:15:07.954Z,100.00
2022-11-28T14:18:48.000Z,100.00
2022-11-28T14:21:46.794Z,100.00
2022-11-28T14:24:59.701Z,100.00
2022-11-28T14:28:03.910Z,100.00
2022-11-28T14:31:25.009Z,100.00
2022-11-28T14:34:56.798Z,100.00
2022-11-28T14:37:59.542Z,100.00
2022-11-28T14:41:03.584Z,100.00
2022-11-28T14:44:24.992Z,100.00
2022-11-28T14:47:42.863Z,100.00
2022-11-28T14:50:46.842Z,100.00
2022-11-28T14:53:49.877Z,100.00
2022-11-28T14:56:58.184Z,100.00
2022-11-28T15:00:05.350Z,100.00
2022-11-28T15:03:15.931Z,100.00
2022-11-28T15:06:20.803Z,100.00
2022-11-28T15:09:30.345Z,100.00
2022-11-28T15:12:37.770Z,100.00
2022-11-28T15:15:49.927Z,100.00
2022-11-28T15:18:55.170Z,100.00
2022-11-28T15:21:58.202Z,100.00
2022-11-28T15:25:00.468Z,100.00
2022-11-28T15:28:18.028Z,100.00
2022-11-28T15:31:23.532Z,100.00
2022-11-28T15:34:28.158Z,100.00
2022-11-28T15:37:34.637Z,100.00
2022-11-28T15:40:37.943Z,100.00
2022-11-28T15:43:45.489Z,100.00
2022-11-28T15:46:48.107Z,100.00
2022-11-28T15:50:01.043Z,100.00
2022-11-28T15:53:14.430Z,100.00
2022-11-28T15:56:16.690Z,100.00
2022-11-28T15:59:19.281Z,100.00
2022-11-28T16:02:26.544Z,100.00
2022-11-28T16:05:29.722Z,100.00
2022-11-28T16:08:34.856Z,100.00
2022-11-28T16:11:38.140Z,100.00
2022-11-28T16:14:44.016Z,100.00
2022-11-28T16:17:46.874Z,100.00
2022-11-28T16:20:49.383Z,100.00
2022-11-28T16:23:52.177Z,100.00
2022-11-28T16:26:56.313Z,100.00
2022-11-28T16:30:00.684Z,100.00
2022-11-28T16:33:28.727Z,100.00
2022-11-28T16:36:38.002Z,100.00
2022-11-28T16:39:40.333Z,100.00
2022-11-28T16:42:42.927Z,100.00
2022-11-28T16:45:45.142Z,100.00
2022-11-28T16:48:50.405Z,100.00
2022-11-28T16:52:13.287Z,100.00
2022-11-28T16:55:36.058Z,100.00
2022-11-28T16:58:38.291Z,100.00
2022-11-28T17:01:41.757Z,100.00
2022-11-28T17:04:44.610Z,100.00
2022-11-28T17:07:47.207Z,100.00
2022-11-28T17:10:49.457Z,100.00
2022-11-28T17:13:52.425Z,100.00
2022-11-28T17:16:56.479Z,100.00
2022-11-28T17:19:59.165Z,100.00
2022-11-28T17:23:01.400Z,100.00
2022-11-28T17:26:06.674Z,100.00
2022-11-28T17:29:10.606Z,100.00
2022-11-28T17:32:13.982Z,100.00
2022-11-28T17:35:22.354Z,100.00
2022-11-28T17:38:25.014Z,100.00
2022-11-28T17:41:27.717Z,100.00
2022-11-28T17:44:31.353Z,100.00
2022-11-28T17:47:35.090Z,100.00
2022-11-28T17:50:37.662Z,100.00
2022-11-28T17:53:43.523Z,100.00
2022-11-28T17:56:47.081Z,100.00
2022-11-28T17:59:49.322Z,100.00
2022-11-28T18:02:51.886Z,100.00
2022-11-28T18:05:54.637Z,100.00
2022-11-28T18:08:58.651Z,100.00
2022-11-28T18:12:01.287Z,100.00
2022-11-28T18:15:04.056Z,100.00
2022-11-28T18:18:06.751Z,100.00
2022-11-28T18:21:10.389Z,100.00
2022-11-28T18:24:13.217Z,100.00
2022-11-28T18:27:16.457Z,100.00
2022-11-28T18:30:19.178Z,100.00
2022-11-28T18:33:21.597Z,100.00
2022-11-28T18:36:25.562Z,100.00
2022-11-28T18:39:28.109Z,100.00
2022-11-28T18:42:30.631Z,100.00
2022-11-28T18:45:33.323Z,100.00
2022-11-28T18:48:36.795Z,100.00
2022-11-28T18:51:39.143Z,100.00
2022-11-28T18:54:41.971Z,100.00
2022-11-28T18:57:44.317Z,100.00
2022-11-28T19:00:47.561Z,100.00
2022-11-28T19:03:50.971Z,100.00
2022-11-28T19:06:54.044Z,100.00
2022-11-28T19:09:56.477Z,100.00
2022-11-28T19:12:59.614Z,100.00
2022-11-28T19:16:09.623Z,100.00
2022-11-28T19:19:12.281Z,100.00
2022-11-28T19:22:14.670Z,100.00
2022-11-28T19:25:17.233Z,100.00
2022-11-28T19:28:19.589Z,100.00
2022-11-28T19:31:22.665Z,100.00
2022-11-28T19:34:25.907Z,100.00
2022-11-28T19:37:29.314Z,100.00
2022-11-28T19:40:31.612Z,100.00
2022-11-28T19:43:34.970Z,100.00
2022-11-28T19:46:37.592Z,100.00
2022-11-28T19:49:40.552Z,100.00
2022-11-28T19:52:43.404Z,100.00
2022-11-28T19:55:46.263Z,100.00
2022-11-28T19:58:49.006Z,100.00
2022-11-28T20:01:53.884Z,100.00
2022-11-28T20:04:58.023Z,100.00
2022-11-28T20:08:00.938Z,100.00
2022-11-28T20:11:10.549Z,100.00
2022-11-28T20:14:14.331Z,100.00
2022-11-28T20:17:16.859Z,100.00
2022-11-28T20:20:19.593Z,100.00
2022-11-28T20:23:22.943Z,100.00
2022-11-28T20:26:26.874Z,100.00
2022-11-28T20:29:29.645Z,100.00
2022-11-28T20:32:31.959Z,100.00
2022-11-28T20:35:34.478Z,100.00
2022-11-28T20:38:37.392Z,100.00
2022-11-28T20:41:39.971Z,100.00
2022-11-28T20:44:42.120Z,100.00
2022-11-28T20:47:49.663Z,100.00
2022-11-28T20:50:52.318Z,100.00
2022-11-28T20:53:56.260Z,100.00
2022-11-28T20:57:20.350Z,100.00
2022-11-28T21:00:26.378Z,100.00
2022-11-28T21:03:29.431Z,100.00
2022-11-28T21:06:31.979Z,100.00
2022-11-28T21:09:34.235Z,100.00
2022-11-28T21:12:36.716Z,100.00
2022-11-28T21:15:40.431Z,100.00
2022-11-28T21:18:44.101Z,100.00
2022-11-28T21:21:46.348Z,100.00
2022-11-28T21:24:50.551Z,100.00
2022-11-28T21:27:52.837Z,100.00
2022-11-28T21:30:55.328Z,100.00
2022-11-28T21:33:58.371Z,100.00
2022-11-28T21:37:00.823Z,100.00
2022-11-28T21:40:03.278Z,100.00
2022-11-28T21:43:05.841Z,100.00
2022-11-28T21:46:08.376Z,100.00
2022-11-28T21:49:11.139Z,100.00
2022-11-28T21:52:15.979Z,100.00
2022-11-28T21:55:19.809Z,100.00
2022-11-28T21:58:26.589Z,100.00
2022-11-28T22:01:29.996Z,100.00
2022-11-28T22:04:32.633Z,100.00
2022-11-28T22:07:35.627Z,100.00
2022-11-28T22:10:38.375Z,100.00
2022-11-28T22:13:42.299Z,100.00
2022-11-28T22:16:44.819Z,100.00
2022-11-28T22:19:47.390Z,100.00
2022-11-28T22:22:50.009Z,100.00
2022-11-28T22:25:52.629Z,100.00
2022-11-28T22:28:55.570Z,100.00
2022-11-28T22:31:58.207Z,100.00
2022-11-28T22:35:02.656Z,100.00
2022-11-28T22:38:04.885Z,100.00
2022-11-28T22:41:08.351Z,100.00
2022-11-28T22:44:11.606Z,100.00
2022-11-28T22:47:14.201Z,100.00
2022-11-28T22:50:16.550Z,100.00
2022-11-28T22:53:19.701Z,100.00
2022-11-28T22:56:22.369Z,100.00
2022-11-28T22:59:24.874Z,100.00
2022-11-28T23:02:30.878Z,100.00
2022-11-28T23:05:33.721Z,100.00
2022-11-28T23:08:36.322Z,100.00
2022-11-28T23:11:39.751Z,100.00
2022-11-28T23:14:43.011Z,100.00
2022-11-28T23:17:45.921Z,100.00
2022-11-28T23:20:48.261Z,100.00
2022-11-28T23:23:51.144Z,100.00
2022-11-28T23:26:53.875Z,100.00
2022-11-28T23:29:56.627Z,100.00
2022-11-28T23:32:59.061Z,100.00
2022-11-28T23:36:11.048Z,100.00
2022-11-28T23:39:14.864Z,100.00
2022-11-28T23:42:17.396Z,100.00
2022-11-28T23:45:19.613Z,100.00
2022-11-28T23:48:22.218Z,100.00
2022-11-28T23:51:25.925Z,100.00
2022-11-28T23:54:28.525Z,100.00
2022-11-28T23:57:30.842Z,100.00
